KAWO/AWO METAR and TAF weather

Enter ICAO airport designator
Station Type Date Time Source
KAWO METAR 2019/12/07 09:56 UTC NOAA

KAWO 070956Z AUTO 00000KT 10SM -RA SCT040 BKN050 OVC060 08/07 A2977 RMK AO2 SLP085 T00780067 PNO $


Station Type Date Time Source
KAWO Decoded METAR 2019/12/07 09:56 UTC NOAA

Arlington Municipal, WA, United States (KAWO) 48-10N 122-10W
Dec 07, 2019 - 04:56 AM EST / 2019.12.07 0956 UTC
Wind: Calm:0
Visibility: 10 mile(s):0
Sky conditions: overcast
Weather: light rain
Temperature: 46.0 F (7.8 C)
Dew Point: 44.1 F (6.7 C)
Relative Humidity: 92%
Pressure (altimeter): 29.77 in. Hg (1008 hPa)
ob: KAWO 070956Z AUTO 00000KT 10SM -RA SCT040 BKN050 OVC060 08/07 A2977 RMK AO2 SLP085 T00780067 PNO
cycle: 10

Station Type Date Time Source
KAWO TAF UTC NOAA

Error!

Example: see airport list